sensor_id;sensor_type;location;lat;lon;timestamp;temperature;humidity
15357;DHT22;7778;48.792;9.260;2023-07-29T00:02:36;18.10;99.90
15357;DHT22;7778;48.792;9.260;2023-07-29T00:05:22;18.20;99.90
15357;DHT22;7778;48.792;9.260;2023-07-29T00:08:09;18.10;99.90
15357;DHT22;7778;48.792;9.260;2023-07-29T00:10:55;18.10;99.90
15357;DHT22;7778;48.792;9.260;2023-07-29T00:13:40;18.20;99.90
15357;DHT22;7778;48.792;9.260;2023-07-29T00:16:26;18.00;99.90
15357;DHT22;7778;48.792;9.260;2023-07-29T00:19:11;17.90;99.90
15357;DHT22;7778;48.792;9.260;2023-07-29T00:21:57;17.80;99.90
15357;DHT22;7778;48.792;9.260;2023-07-29T00:24:44;17.80;99.90
15357;DHT22;7778;48.792;9.260;2023-07-29T00:27:29;17.80;99.90
15357;DHT22;7778;48.792;9.260;2023-07-29T00:30:15;18.00;99.90
15357;DHT22;7778;48.792;9.260;2023-07-29T00:33:01;18.10;99.90
15357;DHT22;7778;48.792;9.260;2023-07-29T00:35:46;18.00;99.90
15357;DHT22;7778;48.792;9.260;2023-07-29T00:38:32;18.10;99.90
15357;DHT22;7778;48.792;9.260;2023-07-29T00:41:19;18.20;99.90
15357;DHT22;7778;48.792;9.260;2023-07-29T00:44:07;18.20;99.90
15357;DHT22;7778;48.792;9.260;2023-07-29T00:46:54;18.10;99.90
15357;DHT22;7778;48.792;9.260;2023-07-29T00:49:40;18.10;99.90
15357;DHT22;7778;48.792;9.260;2023-07-29T00:52:27;18.10;99.90
15357;DHT22;7778;48.792;9.260;2023-07-29T00:55:13;18.20;99.90
15357;DHT22;7778;48.792;9.260;2023-07-29T00:58:00;18.00;99.90
15357;DHT22;7778;48.792;9.260;2023-07-29T01:00:45;18.10;99.90
15357;DHT22;7778;48.792;9.260;2023-07-29T01:03:31;18.30;99.90
15357;DHT22;7778;48.792;9.260;2023-07-29T01:06:21;18.20;99.90
15357;DHT22;7778;48.792;9.260;2023-07-29T01:09:16;18.10;99.90
15357;DHT22;7778;48.792;9.260;2023-07-29T01:12:08;18.10;99.90
15357;DHT22;7778;48.792;9.260;2023-07-29T01:15:01;18.30;99.90
15357;DHT22;7778;48.792;9.260;2023-07-29T01:17:54;18.40;99.90
15357;DHT22;7778;48.792;9.260;2023-07-29T01:20:42;18.50;99.90
15357;DHT22;7778;48.792;9.260;2023-07-29T01:23:31;18.40;99.90
15357;DHT22;7778;48.792;9.260;2023-07-29T01:26:17;18.40;99.90
15357;DHT22;7778;48.792;9.260;2023-07-29T01:29:03;18.30;99.90
15357;DHT22;7778;48.792;9.260;2023-07-29T01:31:52;18.20;99.90
15357;DHT22;7778;48.792;9.260;2023-07-29T01:34:44;18.20;99.90
15357;DHT22;7778;48.792;9.260;2023-07-29T01:37:33;18.00;99.90
15357;DHT22;7778;48.792;9.260;2023-07-29T01:40:22;18.00;99.90
15357;DHT22;7778;48.792;9.260;2023-07-29T01:43:09;17.90;99.90
15357;DHT22;7778;48.792;9.260;2023-07-29T01:45:55;17.90;99.90
15357;DHT22;7778;48.792;9.260;2023-07-29T01:48:42;18.10;99.90
15357;DHT22;7778;48.792;9.260;2023-07-29T01:51:27;18.20;99.90
15357;DHT22;7778;48.792;9.260;2023-07-29T01:54:13;18.00;99.90
15357;DHT22;7778;48.792;9.260;2023-07-29T01:57:00;18.00;99.90
15357;DHT22;7778;48.792;9.260;2023-07-29T01:59:45;18.10;99.90
15357;DHT22;7778;48.792;9.260;2023-07-29T02:02:31;18.10;99.90
15357;DHT22;7778;48.792;9.260;2023-07-29T02:05:16;18.10;99.90
15357;DHT22;7778;48.792;9.260;2023-07-29T02:08:02;18.10;99.90
15357;DHT22;7778;48.792;9.260;2023-07-29T02:10:48;18.20;99.90
15357;DHT22;7778;48.792;9.260;2023-07-29T02:13:35;18.20;99.90
15357;DHT22;7778;48.792;9.260;2023-07-29T02:16:20;18.00;99.90
15357;DHT22;7778;48.792;9.260;2023-07-29T02:19:07;18.20;99.90
15357;DHT22;7778;48.792;9.260;2023-07-29T02:21:52;18.10;99.90
15357;DHT22;7778;48.792;9.260;2023-07-29T02:24:38;18.00;99.90
15357;DHT22;7778;48.792;9.260;2023-07-29T02:27:23;18.10;99.90
15357;DHT22;7778;48.792;9.260;2023-07-29T02:30:12;18.10;99.90
15357;DHT22;7778;48.792;9.260;2023-07-29T02:32:58;18.00;99.90
15357;DHT22;7778;48.792;9.260;2023-07-29T02:35:45;18.00;99.90
15357;DHT22;7778;48.792;9.260;2023-07-29T02:38:31;17.90;99.90
15357;DHT22;7778;48.792;9.260;2023-07-29T02:41:16;18.00;99.90
15357;DHT22;7778;48.792;9.260;2023-07-29T02:44:02;18.00;99.90
15357;DHT22;7778;48.792;9.260;2023-07-29T02:46:49;18.00;99.90
15357;DHT22;7778;48.792;9.260;2023-07-29T02:49:36;18.10;99.90
15357;DHT22;7778;48.792;9.260;2023-07-29T02:52:22;17.90;99.90
15357;DHT22;7778;48.792;9.260;2023-07-29T02:55:07;18.00;99.90
15357;DHT22;7778;48.792;9.260;2023-07-29T02:57:53;17.90;99.90
15357;DHT22;7778;48.792;9.260;2023-07-29T03:00:38;18.10;99.90
15357;DHT22;7778;48.792;9.260;2023-07-29T03:03:26;17.90;99.90
15357;DHT22;7778;48.792;9.260;2023-07-29T03:06:14;17.90;99.90
15357;DHT22;7778;48.792;9.260;2023-07-29T03:09:00;18.00;99.90
15357;DHT22;7778;48.792;9.260;2023-07-29T03:11:45;17.90;99.90
15357;DHT22;7778;48.792;9.260;2023-07-29T03:14:31;17.90;99.90
15357;DHT22;7778;48.792;9.260;2023-07-29T03:17:16;17.80;99.90
15357;DHT22;7778;48.792;9.260;2023-07-29T03:20:04;17.90;99.90
15357;DHT22;7778;48.792;9.260;2023-07-29T03:22:50;17.70;99.90
15357;DHT22;7778;48.792;9.260;2023-07-29T03:25:36;17.70;99.90
15357;DHT22;7778;48.792;9.260;2023-07-29T03:28:23;17.70;99.90
15357;DHT22;7778;48.792;9.260;2023-07-29T03:31:09;17.70;99.90
15357;DHT22;7778;48.792;9.260;2023-07-29T03:33:55;17.70;99.90
15357;DHT22;7778;48.792;9.260;2023-07-29T03:36:42;17.70;99.90
15357;DHT22;7778;48.792;9.260;2023-07-29T03:39:30;17.70;99.90
15357;DHT22;7778;48.792;9.260;2023-07-29T03:42:16;17.70;99.90
15357;DHT22;7778;48.792;9.260;2023-07-29T03:45:01;17.80;99.90
15357;DHT22;7778;48.792;9.260;2023-07-29T03:47:47;17.70;99.90
15357;DHT22;7778;48.792;9.260;2023-07-29T03:50:33;17.80;99.90
15357;DHT22;7778;48.792;9.260;2023-07-29T03:53:21;17.80;99.90
15357;DHT22;7778;48.792;9.260;2023-07-29T03:56:07;17.80;99.90
15357;DHT22;7778;48.792;9.260;2023-07-29T03:58:53;17.80;99.90
15357;DHT22;7778;48.792;9.260;2023-07-29T04:01:39;17.80;99.90
15357;DHT22;7778;48.792;9.260;2023-07-29T04:04:24;18.00;99.90
15357;DHT22;7778;48.792;9.260;2023-07-29T04:07:10;18.10;99.90
15357;DHT22;7778;48.792;9.260;2023-07-29T04:09:57;18.20;99.90
15357;DHT22;7778;48.792;9.260;2023-07-29T04:12:43;18.30;99.90
15357;DHT22;7778;48.792;9.260;2023-07-29T04:15:29;18.30;99.90
15357;DHT22;7778;48.792;9.260;2023-07-29T04:18:15;18.40;99.90
15357;DHT22;7778;48.792;9.260;2023-07-29T04:21:01;18.20;99.90
15357;DHT22;7778;48.792;9.260;2023-07-29T04:23:46;18.00;99.90
15357;DHT22;7778;48.792;9.260;2023-07-29T04:26:33;17.80;99.90
15357;DHT22;7778;48.792;9.260;2023-07-29T04:29:19;17.80;99.90
15357;DHT22;7778;48.792;9.260;2023-07-29T04:32:07;17.80;99.90
15357;DHT22;7778;48.792;9.260;2023-07-29T04:34:52;17.70;99.90
15357;DHT22;7778;48.792;9.260;2023-07-29T04:37:38;17.70;99.90
15357;DHT22;7778;48.792;9.260;2023-07-29T04:40:23;17.70;99.90
15357;DHT22;7778;48.792;9.260;2023-07-29T04:43:10;17.60;99.90
15357;DHT22;7778;48.792;9.260;2023-07-29T04:45:56;17.60;99.90
15357;DHT22;7778;48.792;9.260;2023-07-29T04:48:42;17.70;99.90
15357;DHT22;7778;48.792;9.260;2023-07-29T04:51:31;17.70;99.90
15357;DHT22;7778;48.792;9.260;2023-07-29T04:54:17;17.90;99.90
15357;DHT22;7778;48.792;9.260;2023-07-29T04:57:05;17.70;99.90
15357;DHT22;7778;48.792;9.260;2023-07-29T04:59:52;17.70;99.90
15357;DHT22;7778;48.792;9.260;2023-07-29T05:02:38;17.80;99.90
15357;DHT22;7778;48.792;9.260;2023-07-29T05:05:23;17.70;99.90
15357;DHT22;7778;48.792;9.260;2023-07-29T05:08:09;17.60;99.90
15357;DHT22;7778;48.792;9.260;2023-07-29T05:10:55;17.80;99.90
15357;DHT22;7778;48.792;9.260;2023-07-29T05:13:41;17.90;99.90
15357;DHT22;7778;48.792;9.260;2023-07-29T05:16:29;17.70;99.90
15357;DHT22;7778;48.792;9.260;2023-07-29T05:19:15;17.70;99.90
15357;DHT22;7778;48.792;9.260;2023-07-29T05:22:00;17.70;99.90
15357;DHT22;7778;48.792;9.260;2023-07-29T05:24:46;17.90;99.90
15357;DHT22;7778;48.792;9.260;2023-07-29T05:27:31;17.80;99.90
15357;DHT22;7778;48.792;9.260;2023-07-29T05:30:17;17.70;99.90
15357;DHT22;7778;48.792;9.260;2023-07-29T05:33:04;17.90;99.90
15357;DHT22;7778;48.792;9.260;2023-07-29T05:35:51;17.90;99.90
15357;DHT22;7778;48.792;9.260;2023-07-29T05:38:37;18.10;99.90
15357;DHT22;7778;48.792;9.260;2023-07-29T05:41:22;18.10;99.90
15357;DHT22;7778;48.792;9.260;2023-07-29T05:44:10;18.20;99.90
15357;DHT22;7778;48.792;9.260;2023-07-29T05:46:55;18.10;99.90
15357;DHT22;7778;48.792;9.260;2023-07-29T05:49:42;18.20;99.90
15357;DHT22;7778;48.792;9.260;2023-07-29T05:52:28;18.20;99.90
15357;DHT22;7778;48.792;9.260;2023-07-29T05:55:14;18.40;99.90
15357;DHT22;7778;48.792;9.260;2023-07-29T05:58:00;18.40;99.90
15357;DHT22;7778;48.792;9.260;2023-07-29T06:00:45;18.50;99.90
15357;DHT22;7778;48.792;9.260;2023-07-29T06:03:31;18.70;99.90
15357;DHT22;7778;48.792;9.260;2023-07-29T06:06:17;19.10;99.90
15357;DHT22;7778;48.792;9.260;2023-07-29T06:09:03;19.10;99.90
15357;DHT22;7778;48.792;9.260;2023-07-29T06:11:49;19.10;99.90
15357;DHT22;7778;48.792;9.260;2023-07-29T06:14:34;19.40;99.90
15357;DHT22;7778;48.792;9.260;2023-07-29T06:17:20;20.10;99.90
15357;DHT22;7778;48.792;9.260;2023-07-29T06:20:06;21.10;99.90
15357;DHT22;7778;48.792;9.260;2023-07-29T06:22:53;21.00;99.90
15357;DHT22;7778;48.792;9.260;2023-07-29T06:25:39;20.40;99.90
15357;DHT22;7778;48.792;9.260;2023-07-29T06:28:24;19.90;99.90
15357;DHT22;7778;48.792;9.260;2023-07-29T06:31:10;19.80;99.90
15357;DHT22;7778;48.792;9.260;2023-07-29T06:33:55;19.70;99.90
15357;DHT22;7778;48.792;9.260;2023-07-29T06:36:41;19.80;99.90
15357;DHT22;7778;48.792;9.260;2023-07-29T06:39:28;20.00;99.90
15357;DHT22;7778;48.792;9.260;2023-07-29T06:42:13;20.20;99.90
15357;DHT22;7778;48.792;9.260;2023-07-29T06:44:59;20.20;99.90
15357;DHT22;7778;48.792;9.260;2023-07-29T06:47:45;19.90;99.90
15357;DHT22;7778;48.792;9.260;2023-07-29T06:50:30;19.60;99.90
15357;DHT22;7778;48.792;9.260;2023-07-29T06:53:16;19.70;99.90
15357;DHT22;7778;48.792;9.260;2023-07-29T06:56:03;19.70;99.90
15357;DHT22;7778;48.792;9.260;2023-07-29T06:58:49;19.70;99.90
15357;DHT22;7778;48.792;9.260;2023-07-29T07:01:34;19.80;99.90
15357;DHT22;7778;48.792;9.260;2023-07-29T07:04:20;19.90;99.90
15357;DHT22;7778;48.792;9.260;2023-07-29T07:07:05;19.60;99.90
15357;DHT22;7778;48.792;9.260;2023-07-29T07:09:51;19.40;99.90
15357;DHT22;7778;48.792;9.260;2023-07-29T07:12:38;19.10;99.90
15357;DHT22;7778;48.792;9.260;2023-07-29T07:15:24;19.00;99.90
15357;DHT22;7778;48.792;9.260;2023-07-29T07:18:09;18.90;99.90
15357;DHT22;7778;48.792;9.260;2023-07-29T07:20:55;19.00;99.90
15357;DHT22;7778;48.792;9.260;2023-07-29T07:23:40;18.80;99.90
15357;DHT22;7778;48.792;9.260;2023-07-29T07:26:26;18.80;99.90
15357;DHT22;7778;48.792;9.260;2023-07-29T07:29:13;18.80;99.90
15357;DHT22;7778;48.792;9.260;2023-07-29T07:31:59;18.90;99.90
15357;DHT22;7778;48.792;9.260;2023-07-29T07:34:44;19.00;99.90
15357;DHT22;7778;48.792;9.260;2023-07-29T07:37:30;19.10;99.90
15357;DHT22;7778;48.792;9.260;2023-07-29T07:40:16;19.20;99.90
15357;DHT22;7778;48.792;9.260;2023-07-29T07:43:01;19.30;99.90
15357;DHT22;7778;48.792;9.260;2023-07-29T07:45:49;19.60;99.90
15357;DHT22;7778;48.792;9.260;2023-07-29T07:48:35;19.80;99.90
15357;DHT22;7778;48.792;9.260;2023-07-29T07:51:20;20.00;99.90
15357;DHT22;7778;48.792;9.260;2023-07-29T07:54:06;20.10;99.90
15357;DHT22;7778;48.792;9.260;2023-07-29T07:56:51;20.10;99.90
15357;DHT22;7778;48.792;9.260;2023-07-29T07:59:37;20.00;99.90
15357;DHT22;7778;48.792;9.260;2023-07-29T08:02:24;20.10;99.90
15357;DHT22;7778;48.792;9.260;2023-07-29T08:05:09;20.20;99.90
15357;DHT22;7778;48.792;9.260;2023-07-29T08:07:56;20.20;99.90
15357;DHT22;7778;48.792;9.260;2023-07-29T08:10:41;20.00;99.90
15357;DHT22;7778;48.792;9.260;2023-07-29T08:13:27;20.00;99.90
15357;DHT22;7778;48.792;9.260;2023-07-29T08:16:13;20.30;99.90
15357;DHT22;7778;48.792;9.260;2023-07-29T08:19:00;20.30;99.90
15357;DHT22;7778;48.792;9.260;2023-07-29T08:21:46;20.20;99.90
15357;DHT22;7778;48.792;9.260;2023-07-29T08:24:31;20.50;99.90
15357;DHT22;7778;48.792;9.260;2023-07-29T08:27:18;22.00;99.90
15357;DHT22;7778;48.792;9.260;2023-07-29T08:30:04;23.00;99.90
15357;DHT22;7778;48.792;9.260;2023-07-29T08:32:51;23.00;99.90
15357;DHT22;7778;48.792;9.260;2023-07-29T08:35:38;22.70;99.90
15357;DHT22;7778;48.792;9.260;2023-07-29T08:38:24;22.60;99.90
15357;DHT22;7778;48.792;9.260;2023-07-29T08:41:14;22.50;99.90
15357;DHT22;7778;48.792;9.260;2023-07-29T08:44:06;22.50;99.90
15357;DHT22;7778;48.792;9.260;2023-07-29T08:46:55;22.50;99.90
15357;DHT22;7778;48.792;9.260;2023-07-29T08:49:41;22.70;99.90
15357;DHT22;7778;48.792;9.260;2023-07-29T08:52:29;23.00;99.90
15357;DHT22;7778;48.792;9.260;2023-07-29T08:55:16;23.00;99.90
15357;DHT22;7778;48.792;9.260;2023-07-29T08:58:02;23.30;99.90
15357;DHT22;7778;48.792;9.260;2023-07-29T09:00:49;24.00;99.90
15357;DHT22;7778;48.792;9.260;2023-07-29T09:03:36;25.70;99.90
15357;DHT22;7778;48.792;9.260;2023-07-29T09:06:23;27.50;99.90
15357;DHT22;7778;48.792;9.260;2023-07-29T09:09:11;27.20;99.90
15357;DHT22;7778;48.792;9.260;2023-07-29T09:11:57;26.80;99.90
15357;DHT22;7778;48.792;9.260;2023-07-29T09:14:43;27.60;99.90
15357;DHT22;7778;48.792;9.260;2023-07-29T09:17:31;27.70;99.90
15357;DHT22;7778;48.792;9.260;2023-07-29T09:20:24;27.20;99.90
15357;DHT22;7778;48.792;9.260;2023-07-29T09:23:10;26.30;99.90
15357;DHT22;7778;48.792;9.260;2023-07-29T09:26:02;25.80;99.90
15357;DHT22;7778;48.792;9.260;2023-07-29T09:28:52;25.20;99.90
15357;DHT22;7778;48.792;9.260;2023-07-29T09:31:38;24.90;99.90
15357;DHT22;7778;48.792;9.260;2023-07-29T09:34:24;25.10;99.90
15357;DHT22;7778;48.792;9.260;2023-07-29T09:37:09;26.20;99.90
15357;DHT22;7778;48.792;9.260;2023-07-29T09:40:01;26.80;99.90
15357;DHT22;7778;48.792;9.260;2023-07-29T09:42:52;27.00;99.90
15357;DHT22;7778;48.792;9.260;2023-07-29T09:45:38;26.80;99.90
15357;DHT22;7778;48.792;9.260;2023-07-29T09:48:24;26.40;99.90
15357;DHT22;7778;48.792;9.260;2023-07-29T09:51:11;26.20;99.90
15357;DHT22;7778;48.792;9.260;2023-07-29T09:53:57;26.40;99.90
15357;DHT22;7778;48.792;9.260;2023-07-29T09:56:43;26.30;99.90
15357;DHT22;7778;48.792;9.260;2023-07-29T09:59:35;26.30;99.90
15357;DHT22;7778;48.792;9.260;2023-07-29T10:02:20;26.30;99.90
15357;DHT22;7778;48.792;9.260;2023-07-29T10:05:08;27.00;99.90
15357;DHT22;7778;48.792;9.260;2023-07-29T10:07:55;27.00;99.90
15357;DHT22;7778;48.792;9.260;2023-07-29T10:10:42;28.20;99.90
15357;DHT22;7778;48.792;9.260;2023-07-29T10:13:28;29.90;99.90
15357;DHT22;7778;48.792;9.260;2023-07-29T10:16:15;30.80;99.90
15357;DHT22;7778;48.792;9.260;2023-07-29T10:19:02;31.20;99.90
15357;DHT22;7778;48.792;9.260;2023-07-29T10:21:49;31.50;99.90
15357;DHT22;7778;48.792;9.260;2023-07-29T10:24:36;31.10;99.90
15357;DHT22;7778;48.792;9.260;2023-07-29T10:27:27;30.40;99.90
15357;DHT22;7778;48.792;9.260;2023-07-29T10:30:14;29.50;99.90
15357;DHT22;7778;48.792;9.260;2023-07-29T10:33:04;28.70;99.90
15357;DHT22;7778;48.792;9.260;2023-07-29T10:35:51;28.60;99.90
15357;DHT22;7778;48.792;9.260;2023-07-29T10:38:37;27.90;99.90
15357;DHT22;7778;48.792;9.260;2023-07-29T10:41:23;26.50;99.90
15357;DHT22;7778;48.792;9.260;2023-07-29T10:44:48;25.50;99.90
15357;DHT22;7778;48.792;9.260;2023-07-29T10:47:35;24.80;99.90
15357;DHT22;7778;48.792;9.260;2023-07-29T10:50:23;24.70;99.90
15357;DHT22;7778;48.792;9.260;2023-07-29T10:53:09;24.80;99.90
15357;DHT22;7778;48.792;9.260;2023-07-29T10:55:55;24.90;99.90
15357;DHT22;7778;48.792;9.260;2023-07-29T10:58:44;24.90;99.90
15357;DHT22;7778;48.792;9.260;2023-07-29T11:01:32;25.50;99.90
15357;DHT22;7778;48.792;9.260;2023-07-29T11:04:25;26.30;99.90
15357;DHT22;7778;48.792;9.260;2023-07-29T11:07:24;26.90;99.90
15357;DHT22;7778;48.792;9.260;2023-07-29T11:10:14;27.30;99.90
15357;DHT22;7778;48.792;9.260;2023-07-29T11:13:02;27.30;99.90
15357;DHT22;7778;48.792;9.260;2023-07-29T11:15:50;27.60;99.90
15357;DHT22;7778;48.792;9.260;2023-07-29T11:18:37;27.80;99.90
15357;DHT22;7778;48.792;9.260;2023-07-29T11:21:25;27.80;99.90
15357;DHT22;7778;48.792;9.260;2023-07-29T11:24:17;27.80;99.90
15357;DHT22;7778;48.792;9.260;2023-07-29T11:27:04;27.70;99.90
15357;DHT22;7778;48.792;9.260;2023-07-29T11:29:50;27.70;99.90
15357;DHT22;7778;48.792;9.260;2023-07-29T11:32:44;27.70;99.90
15357;DHT22;7778;48.792;9.260;2023-07-29T11:35:32;27.40;99.90
15357;DHT22;7778;48.792;9.260;2023-07-29T11:38:20;27.30;99.90
15357;DHT22;7778;48.792;9.260;2023-07-29T11:41:08;27.50;99.90
15357;DHT22;7778;48.792;9.260;2023-07-29T11:43:54;27.40;99.90
15357;DHT22;7778;48.792;9.260;2023-07-29T11:46:39;27.20;99.90
15357;DHT22;7778;48.792;9.260;2023-07-29T11:49:25;27.20;99.90
15357;DHT22;7778;48.792;9.260;2023-07-29T11:52:10;27.20;99.90
15357;DHT22;7778;48.792;9.260;2023-07-29T11:54:57;27.20;99.90
15357;DHT22;7778;48.792;9.260;2023-07-29T11:57:44;27.30;99.90
15357;DHT22;7778;48.792;9.260;2023-07-29T12:00:30;27.70;99.90
15357;DHT22;7778;48.792;9.260;2023-07-29T12:03:17;28.00;99.90
15357;DHT22;7778;48.792;9.260;2023-07-29T12:06:02;28.00;99.90
15357;DHT22;7778;48.792;9.260;2023-07-29T12:08:48;28.10;99.90
15357;DHT22;7778;48.792;9.260;2023-07-29T12:11:34;28.20;99.90
15357;DHT22;7778;48.792;9.260;2023-07-29T12:14:21;28.20;99.90
15357;DHT22;7778;48.792;9.260;2023-07-29T12:17:06;28.20;99.90
15357;DHT22;7778;48.792;9.260;2023-07-29T12:19:54;28.40;99.90
15357;DHT22;7778;48.792;9.260;2023-07-29T12:22:40;28.40;99.90
15357;DHT22;7778;48.792;9.260;2023-07-29T12:25:26;28.30;99.90
15357;DHT22;7778;48.792;9.260;2023-07-29T12:28:12;28.40;99.90
15357;DHT22;7778;48.792;9.260;2023-07-29T12:30:59;28.50;99.90
15357;DHT22;7778;48.792;9.260;2023-07-29T12:33:45;28.40;99.90
15357;DHT22;7778;48.792;9.260;2023-07-29T12:36:42;28.70;99.90
15357;DHT22;7778;48.792;9.260;2023-07-29T12:39:30;29.10;99.90
15357;DHT22;7778;48.792;9.260;2023-07-29T12:42:16;29.20;99.90
15357;DHT22;7778;48.792;9.260;2023-07-29T12:45:02;29.30;99.90
15357;DHT22;7778;48.792;9.260;2023-07-29T12:47:50;29.60;99.90
15357;DHT22;7778;48.792;9.260;2023-07-29T12:50:36;29.80;99.90
15357;DHT22;7778;48.792;9.260;2023-07-29T12:53:21;29.30;99.90
15357;DHT22;7778;48.792;9.260;2023-07-29T12:56:07;29.10;99.90
15357;DHT22;7778;48.792;9.260;2023-07-29T12:58:52;28.80;99.90
15357;DHT22;7778;48.792;9.260;2023-07-29T13:01:38;28.30;99.90
15357;DHT22;7778;48.792;9.260;2023-07-29T13:04:25;28.10;99.90
15357;DHT22;7778;48.792;9.260;2023-07-29T13:07:11;28.00;99.90
15357;DHT22;7778;48.792;9.260;2023-07-29T13:09:56;28.00;99.90
15357;DHT22;7778;48.792;9.260;2023-07-29T13:12:42;28.10;99.90
15357;DHT22;7778;48.792;9.260;2023-07-29T13:15:27;28.10;99.90
15357;DHT22;7778;48.792;9.260;2023-07-29T13:18:13;28.10;99.90
15357;DHT22;7778;48.792;9.260;2023-07-29T13:21:00;28.20;99.90
15357;DHT22;7778;48.792;9.260;2023-07-29T13:23:45;28.20;99.90
15357;DHT22;7778;48.792;9.260;2023-07-29T13:26:31;28.10;99.90
15357;DHT22;7778;48.792;9.260;2023-07-29T13:29:16;28.10;99.90
15357;DHT22;7778;48.792;9.260;2023-07-29T13:32:02;27.80;99.90
15357;DHT22;7778;48.792;9.260;2023-07-29T13:34:48;27.80;99.90
15357;DHT22;7778;48.792;9.260;2023-07-29T13:37:36;28.00;99.90
15357;DHT22;7778;48.792;9.260;2023-07-29T13:40:21;28.10;99.90
15357;DHT22;7778;48.792;9.260;2023-07-29T13:43:07;27.70;99.90
15357;DHT22;7778;48.792;9.260;2023-07-29T13:45:53;27.20;99.90
15357;DHT22;7778;48.792;9.260;2023-07-29T13:49:10;27.10;99.90
15357;DHT22;7778;48.792;9.260;2023-07-29T13:51:47;27.00;99.90
15357;DHT22;7778;48.792;9.260;2023-07-29T13:54:35;27.10;99.90
15357;DHT22;7778;48.792;9.260;2023-07-29T13:57:21;27.20;99.90
15357;DHT22;7778;48.792;9.260;2023-07-29T14:00:07;27.30;99.90
15357;DHT22;7778;48.792;9.260;2023-07-29T14:02:53;27.40;99.90
15357;DHT22;7778;48.792;9.260;2023-07-29T14:05:39;27.50;99.90
15357;DHT22;7778;48.792;9.260;2023-07-29T14:08:24;27.50;99.90
15357;DHT22;7778;48.792;9.260;2023-07-29T14:11:14;27.60;99.90
15357;DHT22;7778;48.792;9.260;2023-07-29T14:14:00;27.80;99.90
15357;DHT22;7778;48.792;9.260;2023-07-29T14:16:45;27.80;99.90
15357;DHT22;7778;48.792;9.260;2023-07-29T14:19:33;27.90;99.90
15357;DHT22;7778;48.792;9.260;2023-07-29T14:22:19;28.00;99.90
15357;DHT22;7778;48.792;9.260;2023-07-29T14:25:06;28.00;99.90
15357;DHT22;7778;48.792;9.260;2023-07-29T14:27:54;27.80;99.90
15357;DHT22;7778;48.792;9.260;2023-07-29T14:30:39;28.10;99.90
15357;DHT22;7778;48.792;9.260;2023-07-29T14:33:25;28.20;99.90
15357;DHT22;7778;48.792;9.260;2023-07-29T14:36:12;28.00;99.90
15357;DHT22;7778;48.792;9.260;2023-07-29T14:38:57;27.70;99.90
15357;DHT22;7778;48.792;9.260;2023-07-29T14:41:43;27.70;99.90
15357;DHT22;7778;48.792;9.260;2023-07-29T14:44:30;27.50;99.90
15357;DHT22;7778;48.792;9.260;2023-07-29T14:47:15;27.20;99.90
15357;DHT22;7778;48.792;9.260;2023-07-29T14:50:01;26.80;99.90
15357;DHT22;7778;48.792;9.260;2023-07-29T14:52:47;26.50;99.90
15357;DHT22;7778;48.792;9.260;2023-07-29T14:55:33;26.70;99.90
15357;DHT22;7778;48.792;9.260;2023-07-29T14:58:18;26.70;99.90
15357;DHT22;7778;48.792;9.260;2023-07-29T15:01:06;26.70;99.90
15357;DHT22;7778;48.792;9.260;2023-07-29T15:03:51;26.40;99.90
15357;DHT22;7778;48.792;9.260;2023-07-29T15:06:37;26.20;99.90
15357;DHT22;7778;48.792;9.260;2023-07-29T15:09:23;26.10;99.90
15357;DHT22;7778;48.792;9.260;2023-07-29T15:12:08;26.00;99.90
15357;DHT22;7778;48.792;9.260;2023-07-29T15:14:54;26.20;99.90
15357;DHT22;7778;48.792;9.260;2023-07-29T15:17:41;26.40;99.90
15357;DHT22;7778;48.792;9.260;2023-07-29T15:20:27;26.60;99.90
15357;DHT22;7778;48.792;9.260;2023-07-29T15:23:13;26.60;99.90
15357;DHT22;7778;48.792;9.260;2023-07-29T15:25:58;26.60;99.90
15357;DHT22;7778;48.792;9.260;2023-07-29T15:28:44;26.60;99.90
15357;DHT22;7778;48.792;9.260;2023-07-29T15:31:29;26.60;99.90
15357;DHT22;7778;48.792;9.260;2023-07-29T15:34:16;26.70;99.90
15357;DHT22;7778;48.792;9.260;2023-07-29T15:37:03;26.70;99.90
15357;DHT22;7778;48.792;9.260;2023-07-29T15:39:49;26.80;99.90
15357;DHT22;7778;48.792;9.260;2023-07-29T15:42:34;26.70;99.90
15357;DHT22;7778;48.792;9.260;2023-07-29T15:45:20;26.80;99.90
15357;DHT22;7778;48.792;9.260;2023-07-29T15:48:06;26.70;99.90
15357;DHT22;7778;48.792;9.260;2023-07-29T15:50:53;26.80;99.90
15357;DHT22;7778;48.792;9.260;2023-07-29T15:53:38;26.90;99.90
15357;DHT22;7778;48.792;9.260;2023-07-29T15:56:24;26.70;99.90
15357;DHT22;7778;48.792;9.260;2023-07-29T15:59:12;26.50;99.90
15357;DHT22;7778;48.792;9.260;2023-07-29T16:01:58;26.40;99.90
15357;DHT22;7778;48.792;9.260;2023-07-29T16:04:44;26.50;99.90
15357;DHT22;7778;48.792;9.260;2023-07-29T16:07:31;26.50;99.90
15357;DHT22;7778;48.792;9.260;2023-07-29T16:10:17;26.50;99.90
15357;DHT22;7778;48.792;9.260;2023-07-29T16:13:03;26.30;99.90
15357;DHT22;7778;48.792;9.260;2023-07-29T16:15:49;26.30;99.90
15357;DHT22;7778;48.792;9.260;2023-07-29T16:18:35;26.40;99.90
15357;DHT22;7778;48.792;9.260;2023-07-29T16:21:21;26.40;99.90
15357;DHT22;7778;48.792;9.260;2023-07-29T16:24:08;26.40;99.90
15357;DHT22;7778;48.792;9.260;2023-07-29T16:26:53;26.50;99.90
15357;DHT22;7778;48.792;9.260;2023-07-29T16:29:39;26.40;99.90
15357;DHT22;7778;48.792;9.260;2023-07-29T16:32:25;26.30;99.90
15357;DHT22;7778;48.792;9.260;2023-07-29T16:35:10;26.00;99.90
15357;DHT22;7778;48.792;9.260;2023-07-29T16:37:56;25.70;99.90
15357;DHT22;7778;48.792;9.260;2023-07-29T16:40:44;25.40;99.90
15357;DHT22;7778;48.792;9.260;2023-07-29T16:43:30;25.30;99.90
15357;DHT22;7778;48.792;9.260;2023-07-29T16:46:16;25.30;99.90
15357;DHT22;7778;48.792;9.260;2023-07-29T16:49:02;25.50;99.90
15357;DHT22;7778;48.792;9.260;2023-07-29T16:51:48;25.50;99.90
15357;DHT22;7778;48.792;9.260;2023-07-29T16:54:34;25.50;99.90
15357;DHT22;7778;48.792;9.260;2023-07-29T16:57:21;25.50;99.90
15357;DHT22;7778;48.792;9.260;2023-07-29T17:00:08;25.30;99.90
15357;DHT22;7778;48.792;9.260;2023-07-29T17:02:54;25.10;99.90
15357;DHT22;7778;48.792;9.260;2023-07-29T17:05:39;25.10;99.90
15357;DHT22;7778;48.792;9.260;2023-07-29T17:08:25;25.00;99.90
15357;DHT22;7778;48.792;9.260;2023-07-29T17:11:11;25.00;99.90
15357;DHT22;7778;48.792;9.260;2023-07-29T17:13:57;25.00;99.90
15357;DHT22;7778;48.792;9.260;2023-07-29T17:16:43;25.00;99.90
15357;DHT22;7778;48.792;9.260;2023-07-29T17:19:29;25.10;99.90
15357;DHT22;7778;48.792;9.260;2023-07-29T17:22:14;25.00;99.90
15357;DHT22;7778;48.792;9.260;2023-07-29T17:25:00;24.80;99.90
15357;DHT22;7778;48.792;9.260;2023-07-29T17:27:45;24.80;99.90
15357;DHT22;7778;48.792;9.260;2023-07-29T17:30:33;24.80;99.90
15357;DHT22;7778;48.792;9.260;2023-07-29T17:33:20;24.70;99.90
15357;DHT22;7778;48.792;9.260;2023-07-29T17:36:05;24.50;99.90
15357;DHT22;7778;48.792;9.260;2023-07-29T17:38:51;24.20;99.90
15357;DHT22;7778;48.792;9.260;2023-07-29T17:41:37;23.80;99.90
15357;DHT22;7778;48.792;9.260;2023-07-29T17:44:22;23.30;99.90
15357;DHT22;7778;48.792;9.260;2023-07-29T17:47:09;23.00;99.90
15357;DHT22;7778;48.792;9.260;2023-07-29T17:49:55;22.80;99.90